Time;durP1;ratioP1;P1;durP2;ratioP2;P2;SDS_P1;SDS_P2;PMS_P1;PMS_P2;Temp;Humidity;BMP_temperature;BMP_pressure;BME280_temperature;BME280_humidity;BME280_pressure;Samples;Min_cycle;Max_cycle;Signal;HPM_P1;HPM_P2
2022/09/26 00:01:25;;;;;;;11.13;10.13;;;12.50;99.90;;;;;;5074397;28;20508;-83
2022/09/26 00:03:56;;;;;;;11.20;10.23;;;12.50;99.90;;;;;;5076710;28;20475;-84
2022/09/26 00:06:25;;;;;;;12.20;9.67;;;12.50;99.90;;;;;;5074116;28;20547;-84
2022/09/26 00:08:54;;;;;;;9.00;8.50;;;12.50;99.90;;;;;;5078242;28;20461;-85
2022/09/26 00:11:24;;;;;;;9.70;8.87;;;12.40;99.90;;;;;;5076975;28;20477;-85
2022/09/26 00:13:53;;;;;;;10.10;9.40;;;12.40;99.90;;;;;;5071557;28;20871;-85
2022/09/26 00:16:23;;;;;;;9.60;8.70;;;12.30;99.90;;;;;;5067440;28;20483;-84
2022/09/26 00:18:53;;;;;;;9.17;8.37;;;12.20;99.90;;;;;;5071055;28;20569;-85
2022/09/26 00:21:22;;;;;;;9.40;8.70;;;12.10;99.90;;;;;;5073630;28;20463;-85
2022/09/26 00:23:51;;;;;;;9.03;8.40;;;12.00;99.90;;;;;;5080464;28;20452;-85
2022/09/26 00:26:22;;;;;;;8.90;8.20;;;12.00;99.90;;;;;;5071365;28;20475;-85
2022/09/26 00:28:50;;;;;;;9.33;8.50;;;11.90;99.90;;;;;;5072012;28;20458;-84
2022/09/26 00:31:20;;;;;;;9.60;8.90;;;11.80;99.90;;;;;;5074598;28;20535;-85
2022/09/26 00:33:50;;;;;;;8.93;8.20;;;11.80;99.90;;;;;;5082151;28;20445;-84
2022/09/26 00:36:18;;;;;;;8.90;8.27;;;11.80;99.90;;;;;;5079142;28;20527;-85
2022/09/26 00:38:47;;;;;;;9.00;8.30;;;11.80;99.90;;;;;;5075790;28;20570;-85
2022/09/26 00:41:16;;;;;;;8.87;8.27;;;11.70;99.90;;;;;;5086312;28;20902;-85
2022/09/26 00:43:47;;;;;;;10.00;9.10;;;11.70;99.90;;;;;;5081071;28;20527;-85
2022/09/26 00:46:25;;;;;;;9.40;7.90;;;11.60;99.90;;;;;;5076983;28;20498;-86
2022/09/26 00:49:01;;;;;;;9.10;7.90;;;11.60;99.90;;;;;;5086185;28;20446;-85
2022/09/26 00:51:29;;;;;;;10.00;9.17;;;11.60;99.90;;;;;;5087626;28;20959;-83
2022/09/26 00:53:58;;;;;;;8.27;7.67;;;11.70;99.90;;;;;;5084806;28;20465;-85
2022/09/26 00:56:32;;;;;;;9.00;8.30;;;11.70;99.90;;;;;;5080112;28;20467;-87
2022/09/26 00:59:04;;;;;;;8.87;8.13;;;11.60;99.90;;;;;;5076701;28;20497;-87
2022/09/26 01:01:33;;;;;;;8.57;7.87;;;11.60;99.90;;;;;;5073517;28;20504;-86
2022/09/26 01:04:05;;;;;;;9.10;8.40;;;11.60;99.90;;;;;;5078257;28;20447;-86
2022/09/26 01:06:33;;;;;;;9.70;8.80;;;11.60;99.90;;;;;;5078702;28;20499;-85
2022/09/26 01:09:07;;;;;;;9.97;8.40;;;11.60;99.90;;;;;;5082998;28;20883;-85
2022/09/26 01:11:37;;;;;;;8.90;8.20;;;11.60;99.90;;;;;;5072431;28;20828;-86
2022/09/26 01:14:06;;;;;;;9.87;9.00;;;11.40;99.90;;;;;;5078922;28;20514;-86
2022/09/26 01:16:35;;;;;;;10.07;9.20;;;11.40;99.90;;;;;;5084538;28;20485;-86
2022/09/26 01:19:20;;;;;;;10.20;9.40;;;11.40;99.90;;;;;;5080806;28;20466;-86
2022/09/26 01:22:10;;;;;;;8.83;8.20;;;11.40;99.90;;;;;;5081870;28;21009;-86
2022/09/26 01:25:07;;;;;;;10.00;9.20;;;11.30;99.90;;;;;;5075395;28;20452;-86
2022/09/26 01:27:53;;;;;;;9.50;8.70;;;11.20;99.90;;;;;;5077956;28;21036;-84
2022/09/26 01:30:25;;;;;;;9.50;8.80;;;11.30;99.90;;;;;;5074520;28;20443;-84
2022/09/26 01:33:20;;;;;;;9.53;8.80;;;11.20;99.90;;;;;;5079056;28;20459;-83
2022/09/26 01:36:22;;;;;;;9.30;8.50;;;11.30;99.90;;;;;;5058424;28;20490;-85
2022/09/26 01:39:04;;;;;;;8.97;8.37;;;11.40;99.90;;;;;;5073375;28;20469;-85
2022/09/26 01:41:44;;;;;;;10.83;9.70;;;11.40;99.90;;;;;;5079903;28;20446;-85
2022/09/26 01:44:23;;;;;;;9.60;8.80;;;11.30;99.90;;;;;;5080652;28;20956;-85
2022/09/26 01:46:56;;;;;;;9.27;8.67;;;11.30;99.90;;;;;;5073999;28;20511;-85
2022/09/26 01:49:29;;;;;;;9.13;8.33;;;11.30;99.90;;;;;;5081970;28;20451;-84
2022/09/26 01:52:01;;;;;;;10.17;9.20;;;11.40;99.90;;;;;;5083866;28;20438;-86
2022/09/26 01:54:36;;;;;;;9.20;8.60;;;11.30;99.90;;;;;;5080004;28;20504;-86
2022/09/26 01:57:08;;;;;;;9.27;8.20;;;11.30;99.90;;;;;;5077692;28;20550;-86
2022/09/26 01:59:43;;;;;;;9.83;8.93;;;11.20;99.90;;;;;;5078012;28;20470;-85
2022/09/26 02:02:19;;;;;;;8.33;7.63;;;11.30;99.90;;;;;;5076884;28;20529;-86
2022/09/26 02:04:53;;;;;;;8.77;7.97;;;11.30;99.90;;;;;;5076194;28;20543;-84
2022/09/26 02:07:28;;;;;;;8.90;8.20;;;11.40;99.90;;;;;;5077272;28;21291;-85
2022/09/26 02:10:01;;;;;;;9.50;8.70;;;11.40;99.90;;;;;;5080618;28;20463;-85
2022/09/26 02:12:32;;;;;;;9.10;8.37;;;11.40;99.90;;;;;;5076902;28;20462;-86
2022/09/26 02:15:04;;;;;;;9.17;8.37;;;11.50;99.90;;;;;;5075282;28;20482;-85
2022/09/26 02:17:38;;;;;;;8.80;8.20;;;11.40;99.90;;;;;;5079331;28;20822;-85
2022/09/26 02:20:11;;;;;;;9.67;8.73;;;11.50;99.90;;;;;;5074323;28;20901;-85
2022/09/26 02:22:39;;;;;;;8.90;8.20;;;11.50;99.90;;;;;;5074181;28;20486;-86
2022/09/26 02:25:10;;;;;;;9.80;8.90;;;11.50;99.90;;;;;;5077745;28;20473;-85
2022/09/26 02:27:38;;;;;;;8.50;7.90;;;11.50;99.90;;;;;;5080671;28;20450;-85
2022/09/26 02:30:08;;;;;;;8.70;7.90;;;11.40;99.90;;;;;;5081561;28;20804;-85
2022/09/26 02:32:39;;;;;;;9.70;8.37;;;11.40;99.90;;;;;;5080316;28;20450;-84
2022/09/26 02:37:54;;;;;;;8.23;7.60;;;11.40;99.90;;;;;;5076411;28;20469;-84
2022/09/26 02:40:27;;;;;;;8.40;7.70;;;11.50;99.90;;;;;;5080648;28;20877;-85
2022/09/26 02:43:04;;;;;;;9.73;8.93;;;11.40;99.90;;;;;;5078289;28;20533;-85
2022/09/26 02:45:40;;;;;;;8.43;7.63;;;11.40;99.90;;;;;;5078558;28;20539;-85
2022/09/26 02:48:34;;;;;;;8.87;8.07;;;11.30;99.90;;;;;;5072921;28;20487;-84
2022/09/26 02:51:26;;;;;;;7.00;6.40;;;11.30;99.90;;;;;;5081231;28;20447;-85
2022/09/26 02:54:15;;;;;;;7.83;7.23;;;11.30;99.90;;;;;;5081039;28;20453;-83
2022/09/26 02:57:02;;;;;;;7.60;7.00;;;11.30;99.90;;;;;;5079358;28;20531;-83
2022/09/26 02:59:35;;;;;;;8.50;7.80;;;11.40;99.90;;;;;;5078388;28;20894;-85
2022/09/26 03:02:09;;;;;;;7.33;6.83;;;11.40;1.00;;;;;;5069888;28;20454;-85
2022/09/26 03:04:45;;;;;;;8.13;7.37;;;11.30;1.00;;;;;;5077321;28;20453;-84
2022/09/26 03:07:20;;;;;;;7.67;7.03;;;11.30;1.00;;;;;;5084316;28;20551;-86
2022/09/26 03:09:50;;;;;;;7.93;7.23;;;11.40;99.90;;;;;;5077971;28;21055;-86
2022/09/26 03:12:20;;;;;;;7.67;7.00;;;11.40;99.90;;;;;;5071524;28;21047;-85
2022/09/26 03:14:49;;;;;;;6.90;6.40;;;11.30;99.90;;;;;;5081268;28;21019;-85
2022/09/26 03:17:21;;;;;;;7.43;6.93;;;11.30;1.00;;;;;;5081670;28;20456;-86
2022/09/26 03:19:56;;;;;;;7.73;7.07;;;11.50;99.90;;;;;;5078186;28;20462;-85
2022/09/26 03:22:24;;;;;;;7.77;7.27;;;11.60;99.90;;;;;;5085040;28;20929;-85
2022/09/26 03:24:53;;;;;;;8.10;7.57;;;11.60;1.00;;;;;;5082114;28;20480;-85
2022/09/26 03:27:21;;;;;;;7.63;6.70;;;11.50;70.10;;;;;;5077128;28;20458;-84
2022/09/26 03:29:49;;;;;;;7.50;7.00;;;11.50;99.90;;;;;;5074856;28;20737;-85
2022/09/26 03:32:17;;;;;;;7.70;7.00;;;11.40;99.90;;;;;;5081286;28;20554;-84
2022/09/26 03:34:45;;;;;;;8.20;7.60;;;11.40;99.90;;;;;;5077750;28;20539;-85
2022/09/26 03:37:15;;;;;;;7.97;7.37;;;11.40;99.90;;;;;;5076094;28;20561;-86
2022/09/26 03:39:44;;;;;;;7.13;6.70;;;11.40;99.90;;;;;;5074918;28;20553;-86
2022/09/26 03:42:13;;;;;;;8.53;7.70;;;11.30;99.90;;;;;;5072055;28;20525;-86
2022/09/26 03:44:42;;;;;;;7.30;6.80;;;11.40;38.50;;;;;;5082000;28;20478;-85
2022/09/26 03:47:11;;;;;;;8.33;6.90;;;11.40;1.00;;;;;;5075188;28;20818;-86
2022/09/26 03:49:39;;;;;;;6.60;6.20;;;11.30;60.30;;;;;;5075460;28;20540;-86
2022/09/26 03:52:10;;;;;;;7.13;6.63;;;11.40;1.00;;;;;;5072986;28;20444;-85
2022/09/26 03:54:40;;;;;;;7.20;6.70;;;11.30;1.00;;;;;;5075622;28;20454;-86
2022/09/26 03:57:09;;;;;;;7.33;6.73;;;11.30;1.00;;;;;;5083540;28;20445;-85
2022/09/26 03:59:37;;;;;;;7.40;6.90;;;11.20;99.90;;;;;;5076635;28;20602;-86
2022/09/26 04:02:06;;;;;;;7.00;6.60;;;11.20;99.90;;;;;;5068071;28;20832;-86
2022/09/26 04:04:34;;;;;;;6.73;6.23;;;11.30;25.30;;;;;;5068059;28;20454;-86
2022/09/26 04:07:05;;;;;;;6.73;6.33;;;11.20;98.40;;;;;;5072628;28;20458;-85
2022/09/26 04:09:33;;;;;;;6.47;6.07;;;11.20;1.00;;;;;;5076011;28;20519;-86
2022/09/26 04:12:03;;;;;;;8.13;7.50;;;11.30;1.00;;;;;;5075923;28;20731;-85
2022/09/26 04:14:32;;;;;;;5.90;5.50;;;11.40;99.90;;;;;;5076436;28;20453;-86
2022/09/26 04:17:00;;;;;;;5.53;5.30;;;11.50;1.00;;;;;;5077107;28;20446;-86
2022/09/26 04:19:28;;;;;;;5.33;5.00;;;11.30;1.00;;;;;;5076932;28;20522;-85
2022/09/26 04:21:56;;;;;;;5.80;5.50;;;11.30;1.00;;;;;;5078111;28;20485;-85
2022/09/26 04:24:25;;;;;;;6.50;6.10;;;11.20;99.90;;;;;;5084028;28;20539;-85
2022/09/26 04:26:53;;;;;;;6.30;5.90;;;11.30;1.00;;;;;;5083867;28;20454;-86
2022/09/26 04:29:23;;;;;;;6.03;5.30;;;11.20;1.00;;;;;;5082395;28;20869;-85
2022/09/26 04:31:51;;;;;;;6.30;5.90;;;11.20;1.00;;;;;;5073345;28;20450;-82
2022/09/26 04:34:20;;;;;;;6.37;5.97;;;11.20;1.00;;;;;;5073707;28;20561;-83
2022/09/26 04:36:54;;;;;;;6.30;5.90;;;11.10;1.00;;;;;;5070400;28;20961;-83
2022/09/26 04:39:23;;;;;;;6.73;6.03;;;11.00;1.00;;;;;;5073434;28;20561;-83
2022/09/26 04:41:52;;;;;;;6.67;6.17;;;11.00;1.00;;;;;;5079855;28;20976;-82
2022/09/26 04:44:20;;;;;;;6.30;5.83;;;11.10;99.90;;;;;;5077129;28;20714;-80
2022/09/26 04:46:50;;;;;;;6.53;6.10;;;11.20;1.00;;;;;;5074474;28;20561;-80
2022/09/26 04:49:18;;;;;;;7.17;6.57;;;11.30;1.00;;;;;;5068267;28;20471;-80
2022/09/26 04:51:46;;;;;;;6.33;5.77;;;11.30;99.90;;;;;;5072214;28;20824;-80
2022/09/26 04:54:16;;;;;;;7.03;6.53;;;11.20;99.90;;;;;;5075890;28;20461;-82
2022/09/26 04:56:44;;;;;;;7.30;6.60;;;11.10;1.00;;;;;;5076952;28;20477;-83
2022/09/26 04:59:13;;;;;;;7.13;6.63;;;11.20;1.00;;;;;;5086162;28;20541;-84
2022/09/26 05:01:41;;;;;;;13.60;8.13;;;11.20;1.00;;;;;;5074647;28;20932;-83
2022/09/26 05:04:11;;;;;;;7.50;6.83;;;11.30;1.00;;;;;;5085755;28;20456;-83
2022/09/26 05:06:39;;;;;;;7.63;7.10;;;11.20;99.90;;;;;;5070811;28;20496;-83
2022/09/26 05:09:07;;;;;;;7.50;6.90;;;11.30;99.90;;;;;;5074709;28;20446;-82
2022/09/26 05:11:35;;;;;;;7.00;6.50;;;11.20;99.90;;;;;;5077690;28;20457;-81
2022/09/26 05:14:04;;;;;;;6.47;5.87;;;11.20;1.00;;;;;;5084170;28;20447;-82
2022/09/26 05:16:32;;;;;;;6.70;6.20;;;11.10;99.90;;;;;;5077226;28;20472;-83
2022/09/26 05:19:00;;;;;;;5.97;5.57;;;11.10;99.90;;;;;;5076985;28;20452;-83
2022/09/26 05:21:30;;;;;;;6.13;5.40;;;11.00;99.90;;;;;;5081841;28;20477;-83
2022/09/26 05:26:47;;;;;;;5.57;5.37;;;11.00;99.90;;;;;;5079344;28;20502;-82
2022/09/26 05:29:18;;;;;;;6.60;6.10;;;11.00;99.90;;;;;;5083304;28;20450;-84
2022/09/26 05:31:46;;;;;;;5.73;5.23;;;11.00;99.90;;;;;;5082938;28;21027;-82
2022/09/26 05:34:15;;;;;;;5.53;5.13;;;10.90;99.90;;;;;;5075040;28;20957;-83
2022/09/26 05:36:50;;;;;;;5.20;4.90;;;10.90;99.90;;;;;;5080830;28;20476;-83
2022/09/26 05:42:09;;;;;;;5.57;5.27;;;10.80;1.00;;;;;;5070810;28;20513;-83
2022/09/26 05:44:38;;;;;;;5.47;5.17;;;10.80;99.90;;;;;;5072667;28;20538;-82
2022/09/26 05:47:07;;;;;;;5.50;5.20;;;11.00;99.90;;;;;;5085452;28;20465;-83
2022/09/26 05:49:36;;;;;;;5.37;4.87;;;11.00;99.90;;;;;;5079418;28;21074;-83
2022/09/26 05:52:05;;;;;;;6.10;5.43;;;11.00;1.00;;;;;;5083880;28;20469;-83
2022/09/26 05:54:33;;;;;;;5.10;4.70;;;11.10;1.00;;;;;;5079790;28;20957;-82
2022/09/26 05:57:02;;;;;;;5.00;4.73;;;11.20;2.20;;;;;;5077617;28;20826;-82
2022/09/26 05:59:30;;;;;;;6.07;5.30;;;11.20;1.00;;;;;;5075609;28;20451;-83
2022/09/26 06:01:58;;;;;;;5.37;5.07;;;11.20;99.90;;;;;;5074354;28;20773;-83
2022/09/26 06:04:28;;;;;;;5.17;4.80;;;11.20;99.90;;;;;;5075911;28;20458;-83
2022/09/26 06:06:57;;;;;;;5.40;5.00;;;11.20;99.90;;;;;;5077091;28;20465;-83
2022/09/26 06:09:26;;;;;;;5.93;5.43;;;11.30;48.20;;;;;;5068256;28;20491;-83
2022/09/26 06:11:54;;;;;;;5.17;4.90;;;11.30;99.90;;;;;;5080327;28;20842;-83
2022/09/26 06:14:24;;;;;;;4.97;4.77;;;11.40;1.00;;;;;;5080984;28;20460;-82
2022/09/26 06:16:52;;;;;;;5.67;5.23;;;11.40;1.00;;;;;;5095281;28;20437;-82
2022/09/26 06:19:21;;;;;;;6.20;5.73;;;11.50;1.00;;;;;;5081583;28;20456;-82
2022/09/26 06:21:50;;;;;;;5.50;5.10;;;11.40;1.00;;;;;;5089754;28;20527;-83
2022/09/26 06:24:19;;;;;;;6.03;5.73;;;11.40;1.00;;;;;;5082837;28;20537;-83
2022/09/26 06:26:48;;;;;;;6.07;5.67;;;11.30;91.90;;;;;;5080804;28;20466;-83
2022/09/26 06:29:17;;;;;;;5.70;5.27;;;11.40;99.90;;;;;;5072538;28;20484;-83
2022/09/26 06:31:45;;;;;;;5.37;5.07;;;11.40;99.90;;;;;;5072696;28;20461;-85
2022/09/26 06:34:15;;;;;;;5.60;5.30;;;11.40;1.00;;;;;;5069518;28;20557;-83
2022/09/26 06:36:45;;;;;;;6.03;5.77;;;11.50;1.00;;;;;;5076813;28;21056;-84
2022/09/26 06:39:14;;;;;;;6.23;5.80;;;11.70;1.00;;;;;;5075772;28;20450;-85
2022/09/26 06:41:43;;;;;;;5.80;5.47;;;11.60;1.00;;;;;;5072510;28;20872;-84
2022/09/26 06:44:12;;;;;;;5.80;5.43;;;11.70;99.90;;;;;;5072518;28;20947;-84
2022/09/26 06:46:40;;;;;;;5.73;5.53;;;11.70;99.90;;;;;;5078558;28;20485;-84
2022/09/26 06:49:09;;;;;;;6.70;6.27;;;11.80;99.90;;;;;;5075277;28;20556;-84
2022/09/26 06:51:37;;;;;;;6.63;6.23;;;11.70;1.00;;;;;;5077572;28;20545;-84
2022/09/26 06:54:06;;;;;;;6.00;5.70;;;11.70;1.00;;;;;;5076612;28;20487;-84
2022/09/26 06:56:34;;;;;;;5.87;5.60;;;11.80;99.90;;;;;;5070903;28;20553;-83
2022/09/26 06:59:02;;;;;;;6.07;5.77;;;11.90;99.90;;;;;;5068024;28;20460;-83
2022/09/26 07:01:32;;;;;;;5.60;5.30;;;12.00;99.90;;;;;;5076580;28;20467;-83
2022/09/26 07:04:01;;;;;;;5.80;5.60;;;12.20;1.00;;;;;;5070116;28;20471;-83
2022/09/26 07:06:30;;;;;;;5.43;5.13;;;12.30;99.90;;;;;;5074599;28;20508;-83
2022/09/26 07:08:58;;;;;;;6.50;6.20;;;12.20;99.90;;;;;;5077333;28;20544;-84
2022/09/26 07:11:44;;;;;;;6.00;5.70;;;12.30;99.90;;;;;;5079590;28;20454;-84
2022/09/26 07:14:32;;;;;;;6.43;6.03;;;12.20;1.00;;;;;;5066791;28;20855;-83
2022/09/26 07:17:01;;;;;;;5.60;5.30;;;12.10;1.00;;;;;;5072230;28;21435;-84
2022/09/26 07:19:30;;;;;;;5.70;5.40;;;12.20;99.90;;;;;;5071575;28;20463;-84
2022/09/26 07:21:58;;;;;;;6.50;6.10;;;12.20;99.90;;;;;;5077267;28;20557;-84
2022/09/26 07:24:26;;;;;;;5.90;5.60;;;12.40;32.50;;;;;;5076105;28;20880;-84
2022/09/26 07:26:55;;;;;;;6.63;6.03;;;12.40;1.00;;;;;;5073150;28;20448;-84
2022/09/26 07:29:23;;;;;;;6.27;5.60;;;12.40;99.90;;;;;;5077645;28;20645;-83
2022/09/26 07:31:51;;;;;;;5.50;5.30;;;12.30;2.70;;;;;;5075770;28;20461;-84
2022/09/26 07:34:23;;;;;;;6.60;6.30;;;12.40;1.00;;;;;;5072738;28;21060;-84
2022/09/26 07:36:53;;;;;;;5.40;5.20;;;12.50;1.00;;;;;;5068091;28;20458;-84
2022/09/26 07:39:21;;;;;;;5.17;4.87;;;12.50;99.90;;;;;;5072250;28;20453;-84
2022/09/26 07:41:49;;;;;;;5.80;5.50;;;12.50;99.90;;;;;;5068690;28;20481;-83
2022/09/26 07:44:17;;;;;;;6.37;6.03;;;12.50;1.00;;;;;;5075962;28;20462;-84
2022/09/26 07:50:12;;;;;;;6.07;5.70;;;12.50;99.90;;;;;;5070219;28;20458;-83
2022/09/26 07:52:41;;;;;;;6.50;6.10;;;12.50;99.90;;;;;;5074390;28;21055;-84
2022/09/26 07:55:09;;;;;;;6.40;6.10;;;12.50;99.90;;;;;;5073482;28;20474;-84
2022/09/26 07:57:38;;;;;;;6.03;5.73;;;12.50;99.90;;;;;;5074828;28;20456;-83
2022/09/26 08:00:11;;;;;;;6.40;6.10;;;12.50;99.90;;;;;;5073932;28;20455;-83
2022/09/26 08:02:41;;;;;;;6.40;6.10;;;12.60;48.20;;;;;;5076455;28;20580;-84
2022/09/26 08:05:14;;;;;;;5.90;5.60;;;12.60;1.00;;;;;;5070446;28;21059;-84
2022/09/26 08:07:43;;;;;;;6.23;5.63;;;12.80;1.00;;;;;;5070516;28;20937;-83
2022/09/26 08:10:17;;;;;;;5.87;5.50;;;12.80;1.00;;;;;;5076944;28;20545;-84
2022/09/26 08:12:46;;;;;;;5.93;5.63;;;12.80;1.00;;;;;;5077742;28;20547;-85
2022/09/26 08:15:15;;;;;;;5.53;5.23;;;12.90;99.90;;;;;;5076013;28;20479;-85
2022/09/26 08:17:44;;;;;;;5.60;5.30;;;12.80;1.00;;;;;;5073617;28;20448;-84
2022/09/26 08:20:13;;;;;;;5.83;5.40;;;13.10;99.90;;;;;;5074473;28;20545;-85
2022/09/26 08:22:42;;;;;;;5.70;5.40;;;13.20;1.00;;;;;;5073357;28;20500;-84
2022/09/26 08:25:10;;;;;;;5.70;5.40;;;13.30;1.00;;;;;;5076334;28;20480;-84
2022/09/26 08:27:42;;;;;;;5.33;5.00;;;13.70;99.90;;;;;;5075260;28;20461;-84
2022/09/26 08:30:12;;;;;;;5.57;5.27;;;13.90;99.90;;;;;;5074225;28;20582;-84
2022/09/26 08:32:41;;;;;;;4.90;4.70;;;14.10;99.90;;;;;;5073521;28;20472;-84
2022/09/26 08:35:13;;;;;;;5.77;5.33;;;14.10;99.90;;;;;;5071459;28;20852;-84
2022/09/26 08:37:43;;;;;;;5.97;5.67;;;13.80;1.00;;;;;;5070801;28;20488;-84
2022/09/26 08:40:12;;;;;;;6.50;6.07;;;13.90;1.00;;;;;;5068122;28;20569;-85
2022/09/26 08:42:54;;;;;;;5.77;5.47;;;14.20;72.30;;;;;;5080323;28;20477;-85
2022/09/26 08:48:49;;;;;;;6.13;5.73;;;15.00;1.00;;;;;;5079599;28;20947;-85
2022/09/26 08:51:27;;;;;;;5.23;4.83;;;15.50;1.00;;;;;;5080222;28;20453;-84
2022/09/26 08:54:06;;;;;;;6.37;5.70;;;16.80;1.00;;;;;;5088960;28;21012;-85
2022/09/26 08:56:39;;;;;;;6.80;5.60;;;16.60;99.90;;;;;;5075985;28;20470;-85
2022/09/26 08:59:14;;;;;;;5.57;5.07;;;18.20;99.90;;;;;;5086722;28;20600;-85
2022/09/26 09:01:45;;;;;;;5.63;5.33;;;19.50;99.90;;;;;;5081607;28;20452;-85
2022/09/26 09:04:16;;;;;;;5.40;5.00;;;21.10;99.90;;;;;;5080270;28;20589;-85
2022/09/26 09:06:45;;;;;;;5.47;5.07;;;21.80;99.90;;;;;;5073675;28;21092;-85
2022/09/26 09:09:16;;;;;;;4.90;4.53;;;22.70;99.90;;;;;;5084931;28;20456;-85
2022/09/26 09:12:07;;;;;;;4.00;3.80;;;23.50;99.90;;;;;;5078015;28;20533;-85
2022/09/26 09:15:02;;;;;;;3.97;3.77;;;22.60;99.90;;;;;;5086129;28;20548;-86
2022/09/26 09:18:04;;;;;;;6.13;4.00;;;23.10;99.90;;;;;;5074059;28;20461;-85
2022/09/26 09:20:49;;;;;;;3.37;3.17;;;20.60;99.90;;;;;;5081572;28;20985;-85
2022/09/26 09:23:34;;;;;;;6.90;3.03;;;19.90;99.90;;;;;;5083216;28;20602;-85
2022/09/26 09:26:21;;;;;;;3.07;2.77;;;20.00;99.90;;;;;;5076191;28;20554;-85
2022/09/26 09:29:28;;;;;;;4.60;3.60;;;22.40;99.90;;;;;;5081359;28;20549;-84
2022/09/26 09:32:00;;;;;;;2.60;2.40;;;24.80;99.90;;;;;;5084621;28;20461;-84
2022/09/26 09:34:32;;;;;;;3.80;2.10;;;24.80;99.90;;;;;;5081259;28;20473;-83
2022/09/26 09:37:08;;;;;;;2.60;2.13;;;25.30;99.90;;;;;;5074731;28;20455;-84
2022/09/26 09:39:39;;;;;;;1.87;1.77;;;25.80;99.90;;;;;;5076378;28;20441;-83
2022/09/26 09:42:17;;;;;;;1.73;1.67;;;25.90;99.90;;;;;;5079816;28;20493;-84
2022/09/26 09:44:49;;;;;;;1.77;1.67;;;25.40;99.90;;;;;;5083942;28;20470;-85
2022/09/26 09:47:18;;;;;;;1.83;1.70;;;25.50;99.90;;;;;;5083759;28;20455;-83
2022/09/26 09:49:48;;;;;;;1.70;1.60;;;24.70;99.90;;;;;;5078941;28;20903;-84
2022/09/26 09:52:34;;;;;;;2.37;2.27;;;23.20;99.90;;;;;;5076770;28;20590;-83
2022/09/26 09:55:16;;;;;;;2.13;1.90;;;21.40;99.90;;;;;;5079378;28;20466;-83
2022/09/26 09:58:07;;;;;;;2.20;2.00;;;19.90;99.90;;;;;;5081860;28;20503;-83
2022/09/26 10:00:41;;;;;;;2.13;2.00;;;18.50;99.90;;;;;;5080545;28;20505;-82
2022/09/26 10:03:17;;;;;;;5.70;1.90;;;18.20;99.90;;;;;;5080924;28;20484;-83
2022/09/26 10:05:50;;;;;;;2.80;1.80;;;18.40;99.90;;;;;;5081061;28;20473;-84
2022/09/26 10:08:21;;;;;;;3.47;1.73;;;19.80;99.90;;;;;;5085849;28;20830;-84
2022/09/26 10:10:59;;;;;;;2.13;1.83;;;21.30;99.90;;;;;;5081300;28;20453;-85
2022/09/26 10:13:31;;;;;;;1.50;1.40;;;21.70;99.90;;;;;;5088885;28;20455;-83
2022/09/26 10:16:04;;;;;;;1.60;1.50;;;23.30;99.90;;;;;;5083682;28;20475;-84
2022/09/26 10:18:54;;;;;;;3.83;1.50;;;22.70;99.90;;;;;;5081135;28;20544;-84
2022/09/26 10:21:32;;;;;;;1.27;1.17;;;23.20;99.90;;;;;;5082199;28;20442;-84
2022/09/26 10:24:03;;;;;;;1.20;1.20;;;24.70;99.90;;;;;;5076557;28;20475;-84
2022/09/26 10:26:34;;;;;;;1.17;1.07;;;23.80;99.90;;;;;;5079013;28;20488;-84
2022/09/26 10:29:20;;;;;;;1.43;1.10;;;26.00;99.90;;;;;;5081474;28;20532;-84
2022/09/26 10:31:55;;;;;;;2.13;1.27;;;26.20;99.90;;;;;;5083179;28;20449;-85
2022/09/26 10:34:26;;;;;;;1.17;1.10;;;23.30;99.90;;;;;;5075930;28;20452;-84
2022/09/26 10:36:55;;;;;;;1.53;1.20;;;21.50;99.90;;;;;;5082201;28;20455;-84
2022/09/26 10:42:15;;;;;;;4.80;1.30;;;21.30;99.90;;;;;;5078098;28;20458;-84
2022/09/26 10:44:47;;;;;;;1.20;1.10;;;21.20;99.90;;;;;;5080936;28;20466;-84
2022/09/26 10:47:17;;;;;;;1.10;1.10;;;20.80;99.90;;;;;;5077419;28;20466;-84
2022/09/26 10:49:50;;;;;;;1.20;1.10;;;23.40;99.90;;;;;;5078411;28;20450;-85
2022/09/26 10:52:25;;;;;;;1.20;1.17;;;21.30;99.90;;;;;;5081864;28;20469;-85
2022/09/26 10:55:00;;;;;;;1.83;1.30;;;20.30;99.90;;;;;;5084143;28;20462;-84
2022/09/26 10:57:36;;;;;;;1.73;1.30;;;19.80;99.90;;;;;;5072889;28;20442;-84
2022/09/26 11:00:07;;;;;;;1.30;1.20;;;21.30;99.90;;;;;;5077487;28;20496;-85
2022/09/26 11:02:36;;;;;;;4.37;1.47;;;20.30;99.90;;;;;;5077663;28;20449;-85
2022/09/26 11:07:52;;;;;;;1.30;1.20;;;19.20;99.90;;;;;;5087129;28;20535;-84
2022/09/26 11:10:25;;;;;;;1.10;1.10;;;19.50;99.90;;;;;;5073642;28;20468;-86
2022/09/26 11:13:01;;;;;;;2.20;1.10;;;19.70;99.90;;;;;;5084303;28;20444;-85
2022/09/26 11:15:30;;;;;;;1.20;1.10;;;18.70;95.90;;;;;;5076421;28;20624;-84
2022/09/26 11:18:00;;;;;;;1.43;1.30;;;18.10;93.00;;;;;;5083047;28;20964;-84
2022/09/26 11:20:38;;;;;;;1.40;1.30;;;18.00;94.40;;;;;;5082690;28;20457;-85
2022/09/26 11:23:16;;;;;;;1.63;1.20;;;17.60;92.70;;;;;;5072467;28;20851;-86
2022/09/26 11:25:55;;;;;;;2.20;1.30;;;17.30;93.30;;;;;;5074927;28;20484;-85
2022/09/26 11:28:31;;;;;;;1.10;1.10;;;17.40;95.40;;;;;;5081256;28;20457;-84
2022/09/26 11:31:05;;;;;;;1.27;1.17;;;17.70;97.90;;;;;;5069623;28;21038;-86
2022/09/26 11:33:34;;;;;;;1.70;1.30;;;17.70;99.90;;;;;;5081972;28;20548;-85
2022/09/26 11:36:16;;;;;;;1.30;1.20;;;17.60;99.90;;;;;;5077175;28;21066;-82
2022/09/26 11:38:50;;;;;;;5.00;1.30;;;17.50;99.90;;;;;;5081860;28;20451;-83
2022/09/26 11:41:40;;;;;;;1.63;1.10;;;17.40;99.90;;;;;;5079472;28;20448;-84
2022/09/26 11:44:35;;;;;;;1.50;1.40;;;17.40;99.90;;;;;;5078126;28;20530;-83
2022/09/26 11:47:33;;;;;;;1.10;1.10;;;17.00;99.90;;;;;;5079403;28;21142;-86
2022/09/26 11:50:22;;;;;;;2.80;1.50;;;17.00;99.90;;;;;;5083351;28;20862;-86
2022/09/26 11:53:05;;;;;;;2.00;1.50;;;16.60;99.90;;;;;;5076977;28;21126;-86
2022/09/26 11:55:48;;;;;;;1.83;1.53;;;16.40;99.90;;;;;;5078620;28;20478;-85
2022/09/26 11:58:26;;;;;;;1.90;1.30;;;16.50;99.90;;;;;;5075357;28;20471;-86
2022/09/26 12:01:04;;;;;;;3.00;1.30;;;16.70;99.90;;;;;;5072125;28;20452;-85
2022/09/26 12:04:14;;;;;;;1.50;1.40;;;16.80;99.90;;;;;;5081749;28;20469;-86
2022/09/26 12:06:52;;;;;;;1.50;1.40;;;17.10;99.90;;;;;;5081843;28;20528;-86
2022/09/26 12:09:34;;;;;;;1.33;1.30;;;17.30;99.90;;;;;;5079138;28;20448;-85
2022/09/26 12:12:13;;;;;;;1.47;1.20;;;17.50;99.90;;;;;;5086850;28;20856;-86
2022/09/26 12:14:52;;;;;;;1.33;1.20;;;17.70;99.90;;;;;;5078709;28;22287;-85
2022/09/26 12:17:35;;;;;;;3.07;1.27;;;17.60;99.90;;;;;;5080297;28;20442;-85
2022/09/26 12:20:19;;;;;;;1.10;1.10;;;17.40;99.90;;;;;;5076947;28;20509;-85
2022/09/26 12:22:55;;;;;;;1.40;1.23;;;17.30;99.90;;;;;;5081788;28;20801;-85
2022/09/26 12:25:37;;;;;;;1.53;1.00;;;17.10;99.90;;;;;;5079520;28;20489;-86
2022/09/26 12:28:24;;;;;;;1.47;1.20;;;17.10;99.90;;;;;;5081202;28;20459;-86
2022/09/26 12:31:03;;;;;;;2.23;1.27;;;16.90;99.90;;;;;;5079607;28;20452;-84
2022/09/26 12:33:59;;;;;;;1.53;1.20;;;16.90;99.90;;;;;;5086918;28;20467;-85
2022/09/26 12:36:46;;;;;;;2.07;1.20;;;16.90;99.90;;;;;;5083448;28;20486;-83
2022/09/26 12:39:57;;;;;;;1.20;1.10;;;16.90;99.90;;;;;;5073876;28;20448;-86
2022/09/26 12:42:40;;;;;;;1.43;1.27;;;16.60;99.90;;;;;;5045242;28;20212;-86
2022/09/26 12:45:30;;;;;;;1.40;1.30;;;16.60;99.90;;;;;;5075104;28;20835;-85
2022/09/26 12:48:19;;;;;;;1.40;1.00;;;16.60;99.90;;;;;;5082275;28;20725;-85
2022/09/26 12:51:00;;;;;;;2.83;1.27;;;16.60;99.90;;;;;;5078830;28;20453;-85
2022/09/26 12:53:58;;;;;;;2.07;1.30;;;16.50;99.90;;;;;;5078270;28;20467;-86
2022/09/26 12:56:39;;;;;;;1.13;1.10;;;16.30;99.90;;;;;;5082116;28;20507;-84
2022/09/26 12:59:23;;;;;;;1.30;1.10;;;16.20;99.90;;;;;;5082401;28;20451;-85
2022/09/26 13:02:31;;;;;;;1.37;1.00;;;15.90;99.90;;;;;;5083025;28;20787;-85
2022/09/26 13:05:29;;;;;;;1.07;0.97;;;15.70;99.90;;;;;;5071876;28;20884;-85
2022/09/26 13:08:11;;;;;;;0.90;0.90;;;15.60;99.90;;;;;;5079736;28;20457;-84
2022/09/26 13:10:51;;;;;;;0.90;0.90;;;15.50;99.90;;;;;;5078866;28;20537;-85
2022/09/26 13:13:39;;;;;;;1.07;0.70;;;15.60;99.90;;;;;;5075907;28;20484;-84
2022/09/26 13:16:23;;;;;;;1.37;0.83;;;15.40;99.90;;;;;;5084305;28;20515;-85
2022/09/26 13:18:56;;;;;;;0.90;0.90;;;15.40;99.90;;;;;;5085022;28;20469;-84
2022/09/26 13:21:42;;;;;;;1.90;0.90;;;15.40;99.90;;;;;;5081742;28;20445;-84
2022/09/26 13:24:17;;;;;;;0.90;0.90;;;15.80;99.90;;;;;;5079743;28;20457;-84
2022/09/26 13:26:53;;;;;;;0.90;0.90;;;15.60;99.90;;;;;;5079241;28;20487;-85
2022/09/26 13:29:26;;;;;;;0.90;0.90;;;15.60;99.90;;;;;;5077988;28;20536;-86
2022/09/26 13:32:09;;;;;;;1.00;1.00;;;15.90;99.90;;;;;;5081937;28;20446;-85
2022/09/26 13:34:44;;;;;;;1.00;1.00;;;16.20;99.90;;;;;;5078174;28;20799;-85
2022/09/26 13:37:30;;;;;;;1.67;1.03;;;16.40;99.90;;;;;;5081931;28;20457;-85
2022/09/26 13:40:10;;;;;;;2.87;1.00;;;16.50;99.90;;;;;;5083962;28;20451;-85
2022/09/26 13:42:45;;;;;;;2.23;0.90;;;16.30;99.90;;;;;;5076691;28;20435;-85
2022/09/26 13:45:23;;;;;;;0.83;0.83;;;16.40;99.90;;;;;;5071495;28;20479;-85